Time;durP1;ratioP1;P1;durP2;ratioP2;P2;SDS_P1;SDS_P2;PMS_P1;PMS_P2;Temp;Humidity;BMP_temperature;BMP_pressure;BME280_temperature;BME280_humidity;BME280_pressure;Samples;Min_cycle;Max_cycle;Signal;HPM_P1;HPM_P2
2022/06/26 00:00:36;;;;;;;19.07;17.13;;;23.40;99.90;;;;;;5049390;28;20535;-60
2022/06/26 00:03:03;;;;;;;17.60;16.03;;;23.30;99.90;;;;;;5052322;28;20471;-55
2022/06/26 00:05:30;;;;;;;20.37;18.17;;;23.30;99.90;;;;;;5054722;28;20432;-60
2022/06/26 00:07:58;;;;;;;18.03;16.33;;;23.30;99.90;;;;;;5047744;28;20474;-54
2022/06/26 00:10:25;;;;;;;18.27;16.43;;;23.30;99.90;;;;;;5056442;28;20459;-48
2022/06/26 00:12:52;;;;;;;19.60;17.37;;;23.30;99.90;;;;;;5054788;28;20496;-57
2022/06/26 00:15:19;;;;;;;18.07;16.17;;;23.30;99.90;;;;;;5050983;28;20514;-57
2022/06/26 00:17:46;;;;;;;18.37;16.57;;;23.30;99.90;;;;;;5053545;28;20937;-59
2022/06/26 00:20:13;;;;;;;17.70;15.97;;;23.30;99.90;;;;;;5049448;28;20462;-58
2022/06/26 00:22:40;;;;;;;20.70;18.50;;;23.30;99.90;;;;;;5055375;28;20503;-59
2022/06/26 00:25:09;;;;;;;21.17;17.90;;;23.30;99.90;;;;;;5055665;28;20550;-56
2022/06/26 00:27:36;;;;;;;22.37;19.30;;;23.30;99.90;;;;;;5051743;28;20444;-57
2022/06/26 00:30:04;;;;;;;21.33;18.53;;;23.30;99.90;;;;;;5047189;28;20444;-56
2022/06/26 00:32:30;;;;;;;19.00;17.10;;;23.20;99.90;;;;;;5053695;28;20453;-57
2022/06/26 00:34:57;;;;;;;20.67;18.47;;;23.10;99.90;;;;;;5046460;28;20484;-61
2022/06/26 00:37:24;;;;;;;23.03;18.67;;;23.10;99.90;;;;;;5051861;28;20499;-61
2022/06/26 00:39:51;;;;;;;20.63;18.60;;;23.10;99.90;;;;;;5052489;28;20452;-46
2022/06/26 00:42:20;;;;;;;20.60;18.50;;;23.00;99.90;;;;;;5054373;28;20472;-52
2022/06/26 00:44:47;;;;;;;19.17;17.17;;;23.00;99.90;;;;;;5046875;28;20460;-57
2022/06/26 00:47:14;;;;;;;20.63;18.70;;;22.90;99.90;;;;;;5051535;28;20455;-59
2022/06/26 00:49:41;;;;;;;17.67;16.07;;;22.90;99.90;;;;;;5051719;28;20460;-60
2022/06/26 00:52:08;;;;;;;19.47;17.57;;;22.80;99.90;;;;;;5049973;28;20492;-58
2022/06/26 00:54:35;;;;;;;20.07;18.07;;;22.80;99.90;;;;;;5055247;28;20579;-52
2022/06/26 00:57:02;;;;;;;21.20;19.10;;;22.80;99.90;;;;;;5054288;28;20466;-56
2022/06/26 00:59:32;;;;;;;20.37;18.47;;;22.80;99.90;;;;;;5050078;28;20528;-63
2022/06/26 01:01:59;;;;;;;18.93;17.20;;;22.70;99.90;;;;;;5051768;28;20491;-59
2022/06/26 01:04:25;;;;;;;19.70;17.90;;;22.70;99.90;;;;;;5051878;28;20449;-60
2022/06/26 01:06:52;;;;;;;19.60;17.50;;;22.80;99.90;;;;;;5050698;28;21024;-48
2022/06/26 01:09:19;;;;;;;19.30;17.40;;;22.80;99.90;;;;;;5053464;28;20531;-49
2022/06/26 01:11:47;;;;;;;19.03;17.03;;;22.80;99.90;;;;;;5050802;28;20575;-57
2022/06/26 01:14:15;;;;;;;18.90;17.20;;;22.80;99.90;;;;;;5049867;28;20478;-55
2022/06/26 01:16:45;;;;;;;20.17;18.20;;;22.80;99.90;;;;;;5052335;28;20539;-61
2022/06/26 01:19:16;;;;;;;18.17;16.27;;;22.80;99.90;;;;;;5051233;28;20444;-55
2022/06/26 01:21:43;;;;;;;19.10;17.10;;;22.80;99.90;;;;;;5053136;28;20425;-60
2022/06/26 01:24:12;;;;;;;20.37;17.00;;;22.70;99.90;;;;;;5051407;28;20448;-57
2022/06/26 01:26:41;;;;;;;20.90;18.80;;;22.70;99.90;;;;;;5051669;28;20437;-61
2022/06/26 01:29:08;;;;;;;19.60;17.70;;;22.60;99.90;;;;;;5051978;28;20479;-58
2022/06/26 01:31:36;;;;;;;19.30;17.30;;;22.60;99.90;;;;;;5054250;28;20440;-52
2022/06/26 01:34:07;;;;;;;20.00;18.07;;;22.60;99.90;;;;;;5054939;28;20464;-57
2022/06/26 01:36:34;;;;;;;19.13;16.60;;;22.60;99.90;;;;;;5054164;28;20532;-58
2022/06/26 01:39:01;;;;;;;19.63;17.83;;;22.50;99.90;;;;;;5053608;28;20524;-54
2022/06/26 01:41:36;;;;;;;20.07;18.10;;;22.60;99.90;;;;;;5053254;28;20484;-55
2022/06/26 01:44:07;;;;;;;19.30;17.50;;;22.50;99.90;;;;;;5045421;28;20468;-54
2022/06/26 01:46:35;;;;;;;19.97;18.07;;;22.50;99.90;;;;;;5054116;28;20467;-56
2022/06/26 01:49:03;;;;;;;18.77;16.87;;;22.50;99.90;;;;;;5054584;28;20766;-51
2022/06/26 01:51:30;;;;;;;20.60;18.47;;;22.50;99.90;;;;;;5055367;28;20427;-59
2022/06/26 01:54:00;;;;;;;20.83;18.63;;;22.50;99.90;;;;;;5053877;28;20917;-53
2022/06/26 01:56:29;;;;;;;21.60;19.40;;;22.50;99.90;;;;;;5055963;28;20480;-54
2022/06/26 01:58:55;;;;;;;20.73;18.73;;;22.50;99.90;;;;;;5051994;28;20524;-60
2022/06/26 02:01:22;;;;;;;19.67;17.80;;;22.50;99.90;;;;;;5053583;28;20539;-47
2022/06/26 02:03:49;;;;;;;20.57;18.57;;;22.50;99.90;;;;;;5045338;28;20474;-55
2022/06/26 02:06:19;;;;;;;20.60;18.67;;;22.50;99.90;;;;;;5052186;28;20496;-54
2022/06/26 02:08:46;;;;;;;18.97;17.17;;;22.50;99.90;;;;;;5053971;28;20504;-56
2022/06/26 02:14:02;;;;;;;23.00;19.87;;;22.50;99.90;;;;;;5034983;28;20420;-50
2022/06/26 02:16:30;;;;;;;20.43;18.17;;;22.40;99.90;;;;;;5050018;28;20555;-48
2022/06/26 02:19:02;;;;;;;20.43;17.17;;;22.40;99.90;;;;;;5051998;28;20433;-49
2022/06/26 02:21:30;;;;;;;21.40;19.30;;;22.30;99.90;;;;;;5053366;28;20456;-45
2022/06/26 02:23:59;;;;;;;20.97;19.00;;;22.30;99.90;;;;;;5053044;28;20443;-50
2022/06/26 02:26:26;;;;;;;22.17;19.77;;;22.30;99.90;;;;;;5056368;28;20455;-44
2022/06/26 02:28:53;;;;;;;22.83;20.33;;;22.30;99.90;;;;;;5055716;28;20466;-53
2022/06/26 02:31:23;;;;;;;22.17;19.80;;;22.30;99.90;;;;;;5055360;28;20559;-54
2022/06/26 02:33:52;;;;;;;21.63;18.93;;;22.30;99.90;;;;;;5056138;28;20484;-55
2022/06/26 02:36:19;;;;;;;21.73;19.43;;;22.30;99.90;;;;;;5056035;28;20474;-58
2022/06/26 02:38:46;;;;;;;20.83;18.40;;;22.30;99.90;;;;;;5053547;28;20474;-46
2022/06/26 02:41:16;;;;;;;20.87;18.87;;;22.20;99.90;;;;;;5052679;28;20520;-48
2022/06/26 02:43:43;;;;;;;20.20;18.20;;;22.20;99.90;;;;;;5054836;28;20448;-51
2022/06/26 02:46:10;;;;;;;21.60;19.40;;;22.20;99.90;;;;;;5052697;28;20443;-50
2022/06/26 02:48:39;;;;;;;22.77;20.47;;;22.20;99.90;;;;;;5056567;28;20475;-51
2022/06/26 02:51:05;;;;;;;22.00;19.80;;;22.20;99.90;;;;;;5056842;28;20440;-54
2022/06/26 02:53:32;;;;;;;22.60;20.37;;;22.20;99.90;;;;;;5055886;28;20456;-47
2022/06/26 02:55:59;;;;;;;22.90;20.70;;;22.30;99.90;;;;;;5053778;28;20511;-58
2022/06/26 02:58:26;;;;;;;22.30;20.20;;;22.30;99.90;;;;;;5053924;28;20588;-47
2022/06/26 03:00:53;;;;;;;22.47;20.37;;;22.30;99.90;;;;;;5054198;28;20476;-42
2022/06/26 03:03:20;;;;;;;21.93;19.70;;;22.30;99.90;;;;;;5044611;28;20520;-52
2022/06/26 03:05:48;;;;;;;22.77;20.40;;;22.30;99.90;;;;;;5053670;28;20467;-52
2022/06/26 03:08:15;;;;;;;23.53;20.73;;;22.30;99.90;;;;;;5055684;28;20452;-53
2022/06/26 03:10:42;;;;;;;24.17;20.50;;;22.30;99.90;;;;;;5053392;28;20463;-53
2022/06/26 03:13:13;;;;;;;21.47;19.40;;;22.30;99.90;;;;;;5046885;28;20464;-49
2022/06/26 03:15:41;;;;;;;22.07;19.97;;;22.30;99.90;;;;;;5052449;28;20515;-55
2022/06/26 03:18:08;;;;;;;22.80;20.40;;;22.30;99.90;;;;;;5049995;28;20453;-54
2022/06/26 03:20:35;;;;;;;22.50;20.10;;;22.30;99.90;;;;;;5054188;28;20535;-43
2022/06/26 03:23:06;;;;;;;22.47;20.10;;;22.30;99.90;;;;;;5048553;28;20551;-58
2022/06/26 03:25:33;;;;;;;22.53;20.40;;;22.30;99.90;;;;;;5053167;28;20563;-50
2022/06/26 03:28:00;;;;;;;22.90;20.50;;;22.30;99.90;;;;;;5049644;28;20567;-54
2022/06/26 03:30:29;;;;;;;21.73;19.70;;;22.40;99.90;;;;;;5051500;28;20475;-47
2022/06/26 03:32:56;;;;;;;25.10;19.80;;;22.40;99.90;;;;;;5052914;28;20451;-52
2022/06/26 03:35:23;;;;;;;22.03;20.00;;;22.50;99.90;;;;;;5050562;28;20496;-55
2022/06/26 03:37:54;;;;;;;20.50;18.60;;;22.50;99.90;;;;;;5050946;28;20551;-57
2022/06/26 03:40:23;;;;;;;23.40;20.90;;;22.50;99.90;;;;;;5045601;28;20446;-60
2022/06/26 03:42:56;;;;;;;22.87;20.57;;;22.60;99.90;;;;;;5045170;28;20468;-54
2022/06/26 03:45:23;;;;;;;20.23;18.33;;;22.60;99.90;;;;;;5048938;28;20476;-49
2022/06/26 03:47:50;;;;;;;21.27;19.10;;;22.70;99.90;;;;;;5052055;28;20496;-52
2022/06/26 03:50:17;;;;;;;20.90;18.90;;;22.70;99.90;;;;;;5051899;28;20490;-54
2022/06/26 03:52:44;;;;;;;21.13;19.03;;;22.70;99.90;;;;;;5052053;28;20459;-53
2022/06/26 03:55:11;;;;;;;20.20;18.20;;;22.70;99.90;;;;;;5051924;28;20487;-56
2022/06/26 03:57:39;;;;;;;21.90;19.60;;;22.80;99.90;;;;;;5049300;28;20579;-51
2022/06/26 04:00:07;;;;;;;21.20;19.10;;;22.90;99.90;;;;;;5050191;28;20454;-54
2022/06/26 04:02:34;;;;;;;19.97;17.97;;;22.90;99.90;;;;;;5051789;28;20463;-50
2022/06/26 04:05:01;;;;;;;19.13;17.30;;;23.00;99.90;;;;;;5049502;28;20458;-47
2022/06/26 04:07:31;;;;;;;19.10;17.40;;;23.00;99.90;;;;;;5049476;28;20445;-57
2022/06/26 04:09:57;;;;;;;22.50;20.27;;;23.00;99.90;;;;;;5051931;28;20536;-46
2022/06/26 04:12:24;;;;;;;19.27;17.33;;;23.10;99.90;;;;;;5051388;28;20475;-56
2022/06/26 04:14:52;;;;;;;23.83;17.97;;;23.10;99.90;;;;;;5050285;28;20458;-48
2022/06/26 04:17:22;;;;;;;18.23;16.53;;;23.10;99.90;;;;;;5050034;28;20472;-45
2022/06/26 04:19:50;;;;;;;19.13;17.40;;;23.20;99.90;;;;;;5052381;28;20484;-53
2022/06/26 04:22:17;;;;;;;19.17;17.37;;;23.30;99.90;;;;;;5050975;28;20475;-57
2022/06/26 04:24:49;;;;;;;20.97;18.93;;;23.30;99.90;;;;;;5051630;28;20462;-53
2022/06/26 04:27:16;;;;;;;19.93;18.00;;;23.40;99.90;;;;;;5051245;28;20511;-56
2022/06/26 04:29:43;;;;;;;23.60;17.50;;;23.40;99.90;;;;;;5052770;28;20464;-56
2022/06/26 04:32:11;;;;;;;19.03;17.10;;;23.50;99.90;;;;;;5051051;28;20535;-48
2022/06/26 04:34:41;;;;;;;20.20;18.17;;;23.50;99.90;;;;;;5054015;28;20540;-48
2022/06/26 04:37:08;;;;;;;20.30;18.40;;;23.60;99.90;;;;;;5049491;28;20567;-57
2022/06/26 04:39:34;;;;;;;19.90;17.90;;;23.70;99.90;;;;;;5051505;28;20486;-55
2022/06/26 04:42:01;;;;;;;18.77;16.97;;;23.70;99.90;;;;;;5054487;28;20508;-49
2022/06/26 04:44:28;;;;;;;18.27;16.40;;;23.80;99.90;;;;;;5053885;28;20559;-51
2022/06/26 04:46:55;;;;;;;17.90;16.20;;;23.80;99.90;;;;;;5051929;28;20436;-46
2022/06/26 04:49:23;;;;;;;18.93;17.00;;;23.90;99.90;;;;;;5054100;28;20459;-54
2022/06/26 04:51:52;;;;;;;18.40;16.70;;;24.00;99.90;;;;;;5054103;28;20444;-48
2022/06/26 04:54:19;;;;;;;18.47;16.87;;;24.00;99.90;;;;;;5052382;28;20447;-55
2022/06/26 04:56:46;;;;;;;20.00;18.20;;;24.00;99.90;;;;;;5052377;28;20471;-55
2022/06/26 04:59:12;;;;;;;18.50;16.87;;;24.00;99.90;;;;;;5053226;28;20440;-46
2022/06/26 05:01:39;;;;;;;18.30;16.60;;;24.00;99.90;;;;;;5053973;28;20604;-51
2022/06/26 05:04:06;;;;;;;18.73;17.00;;;24.00;99.90;;;;;;5054132;28;20467;-50
2022/06/26 05:06:37;;;;;;;17.73;16.20;;;24.00;99.90;;;;;;5053862;28;20444;-52
2022/06/26 05:09:05;;;;;;;18.13;16.23;;;24.10;99.90;;;;;;5054137;28;20504;-49
2022/06/26 05:11:32;;;;;;;19.10;16.57;;;24.10;99.90;;;;;;5052575;28;20432;-54
2022/06/26 05:13:59;;;;;;;17.47;15.90;;;24.10;99.90;;;;;;5053798;28;20472;-49
2022/06/26 05:16:26;;;;;;;20.03;18.23;;;24.20;99.90;;;;;;5050820;28;20505;-47
2022/06/26 05:18:55;;;;;;;19.50;17.77;;;24.20;99.90;;;;;;5048584;28;20470;-57
2022/06/26 05:21:22;;;;;;;18.50;16.70;;;24.30;99.90;;;;;;5051917;28;20457;-57
2022/06/26 05:23:50;;;;;;;17.53;15.83;;;24.30;99.90;;;;;;5051083;28;20482;-51
2022/06/26 05:26:17;;;;;;;17.83;15.67;;;24.30;99.90;;;;;;5053858;28;20582;-48
2022/06/26 05:28:44;;;;;;;17.87;16.10;;;24.40;99.90;;;;;;5052881;28;20450;-52
2022/06/26 05:31:11;;;;;;;16.47;14.87;;;24.40;99.90;;;;;;5046442;28;20455;-50
2022/06/26 05:33:38;;;;;;;17.10;15.50;;;24.40;99.90;;;;;;5050248;28;20467;-54
2022/06/26 05:36:08;;;;;;;18.07;16.27;;;24.50;99.90;;;;;;5052425;28;20547;-52
2022/06/26 05:38:35;;;;;;;16.40;15.00;;;24.60;99.90;;;;;;5050531;28;20826;-51
2022/06/26 05:41:04;;;;;;;17.17;15.67;;;24.70;99.90;;;;;;5053706;28;20520;-55
2022/06/26 05:43:31;;;;;;;15.80;14.40;;;24.80;99.90;;;;;;5053844;28;20456;-49
2022/06/26 05:45:59;;;;;;;15.40;14.00;;;24.80;99.90;;;;;;5053815;28;20466;-45
2022/06/26 05:48:26;;;;;;;17.30;15.60;;;24.80;99.90;;;;;;5052812;28;20968;-50
2022/06/26 05:50:53;;;;;;;18.40;16.60;;;24.80;99.90;;;;;;5052905;28;20440;-52
2022/06/26 05:53:21;;;;;;;16.93;15.43;;;24.80;99.90;;;;;;5053293;28;21026;-55
2022/06/26 05:55:48;;;;;;;16.93;15.07;;;24.80;99.90;;;;;;5052881;28;20468;-53
2022/06/26 05:58:16;;;;;;;16.27;14.87;;;24.80;99.90;;;;;;5053668;28;20488;-43
2022/06/26 06:00:43;;;;;;;17.37;15.77;;;24.80;99.90;;;;;;5056969;28;20526;-52
2022/06/26 06:03:12;;;;;;;16.53;15.00;;;24.70;99.90;;;;;;5056740;28;20468;-50
2022/06/26 06:05:39;;;;;;;15.33;13.73;;;24.70;99.90;;;;;;5056259;28;20451;-50
2022/06/26 06:08:06;;;;;;;14.13;12.73;;;24.70;99.90;;;;;;5057108;28;20491;-46
2022/06/26 06:10:33;;;;;;;15.70;13.83;;;24.70;99.90;;;;;;5055545;28;20448;-47
2022/06/26 06:13:01;;;;;;;13.80;12.40;;;24.80;99.90;;;;;;5056766;28;20451;-48
2022/06/26 06:15:36;;;;;;;15.13;13.80;;;24.90;99.90;;;;;;5053275;28;20451;-52
2022/06/26 06:18:02;;;;;;;13.47;12.30;;;24.90;99.90;;;;;;5036463;28;20524;-52
2022/06/26 06:20:29;;;;;;;13.03;11.83;;;24.90;99.90;;;;;;5030405;28;20451;-53
2022/06/26 06:23:02;;;;;;;13.40;12.10;;;25.00;99.90;;;;;;5029253;28;20463;-52
2022/06/26 06:25:29;;;;;;;10.57;9.07;;;25.00;99.90;;;;;;5036515;28;20527;-47
2022/06/26 06:27:59;;;;;;;9.73;8.93;;;25.10;99.90;;;;;;5034022;28;20421;-54
2022/06/26 06:30:26;;;;;;;9.40;8.50;;;25.10;99.90;;;;;;5027800;28;20469;-52
2022/06/26 06:32:54;;;;;;;12.60;10.37;;;25.20;99.90;;;;;;5032319;28;20452;-50
2022/06/26 06:35:21;;;;;;;10.10;9.07;;;25.30;99.90;;;;;;5037268;28;20441;-50
2022/06/26 06:37:48;;;;;;;9.30;8.50;;;25.40;99.90;;;;;;5029823;28;20479;-56
2022/06/26 06:40:15;;;;;;;9.60;8.70;;;25.50;99.90;;;;;;5031028;28;20524;-54
2022/06/26 06:42:43;;;;;;;10.30;9.40;;;25.60;99.90;;;;;;5025649;28;20468;-49
2022/06/26 06:45:11;;;;;;;10.37;9.50;;;25.70;99.90;;;;;;5033317;28;20774;-50
2022/06/26 06:47:38;;;;;;;10.93;10.03;;;25.90;99.90;;;;;;5031784;28;20461;-56
2022/06/26 06:50:07;;;;;;;10.50;9.63;;;26.00;99.90;;;;;;5030545;28;20457;-57
2022/06/26 06:52:34;;;;;;;11.43;10.37;;;26.20;99.90;;;;;;5034803;28;20437;-51
2022/06/26 06:55:01;;;;;;;11.10;9.37;;;26.40;99.90;;;;;;5027558;28;20499;-57
2022/06/26 06:57:28;;;;;;;9.10;8.40;;;26.40;99.90;;;;;;5018770;28;20476;-58
2022/06/26 06:59:55;;;;;;;10.93;9.80;;;26.50;99.90;;;;;;5022699;28;20449;-58
2022/06/26 07:02:22;;;;;;;10.30;9.40;;;26.60;99.90;;;;;;5026326;28;20467;-58
2022/06/26 07:04:49;;;;;;;10.30;9.47;;;26.70;99.90;;;;;;5023144;28;20802;-55
2022/06/26 07:07:17;;;;;;;10.53;9.63;;;26.90;99.90;;;;;;5031399;28;20459;-50
2022/06/26 07:09:44;;;;;;;10.90;8.90;;;27.10;99.90;;;;;;5027414;28;20566;-53
2022/06/26 07:12:14;;;;;;;9.60;8.80;;;27.20;99.90;;;;;;5017479;28;20488;-54
2022/06/26 07:14:41;;;;;;;11.03;10.03;;;27.50;99.90;;;;;;5017778;28;20871;-56
2022/06/26 07:17:08;;;;;;;11.20;10.40;;;27.80;99.90;;;;;;5026274;28;20489;-50
2022/06/26 07:19:35;;;;;;;8.97;8.17;;;28.10;99.90;;;;;;5031663;28;20441;-57
2022/06/26 07:22:02;;;;;;;8.30;7.60;;;29.00;99.90;;;;;;5020878;28;20798;-59
2022/06/26 07:24:30;;;;;;;9.20;8.40;;;30.50;99.90;;;;;;5025732;28;20437;-56
2022/06/26 07:26:57;;;;;;;8.70;8.10;;;32.20;99.90;;;;;;5023629;28;20462;-57
2022/06/26 07:29:24;;;;;;;8.50;7.80;;;34.10;99.90;;;;;;5028461;28;20535;-58
2022/06/26 07:31:51;;;;;;;6.70;6.20;;;35.90;97.30;;;;;;5025706;28;20557;-57
2022/06/26 07:34:18;;;;;;;7.70;7.10;;;37.40;88.90;;;;;;5023217;28;20433;-53
2022/06/26 07:36:46;;;;;;;7.67;6.97;;;38.60;80.80;;;;;;5020475;28;20449;-56
2022/06/26 07:39:18;;;;;;;6.63;6.13;;;39.80;71.20;;;;;;5020954;28;20449;-54
2022/06/26 07:41:47;;;;;;;7.03;6.53;;;40.60;62.20;;;;;;5022744;28;20429;-57
2022/06/26 07:44:14;;;;;;;7.10;6.50;;;41.00;58.50;;;;;;5021235;28;20473;-58
2022/06/26 07:46:42;;;;;;;6.30;5.90;;;41.70;56.00;;;;;;5020901;28;20767;-57
2022/06/26 07:49:09;;;;;;;7.43;5.83;;;42.00;53.30;;;;;;5020013;28;20531;-54
2022/06/26 07:51:36;;;;;;;7.33;6.80;;;42.00;51.50;;;;;;5021846;28;20443;-54
2022/06/26 07:54:04;;;;;;;6.70;6.00;;;42.20;51.10;;;;;;5025164;28;20453;-57
2022/06/26 07:56:31;;;;;;;6.97;6.40;;;42.20;50.00;;;;;;5019755;28;20471;-57
2022/06/26 07:59:00;;;;;;;7.10;6.50;;;42.40;48.60;;;;;;5024772;28;20491;-57
2022/06/26 08:01:29;;;;;;;6.23;5.83;;;42.40;48.30;;;;;;5026235;28;20508;-54
2022/06/26 08:03:56;;;;;;;6.63;6.03;;;42.50;47.90;;;;;;5029834;28;20461;-58
2022/06/26 08:06:23;;;;;;;6.20;5.80;;;42.80;46.70;;;;;;5023820;28;20476;-58
2022/06/26 08:08:50;;;;;;;6.53;6.03;;;42.80;47.50;;;;;;5024888;28;20452;-58
2022/06/26 08:11:17;;;;;;;5.93;5.27;;;42.80;46.10;;;;;;5023375;28;20520;-53
2022/06/26 08:13:46;;;;;;;6.60;5.43;;;42.70;45.90;;;;;;5025173;28;20455;-52
2022/06/26 08:16:14;;;;;;;5.80;5.30;;;42.60;46.10;;;;;;5022564;28;20453;-45
2022/06/26 08:18:41;;;;;;;6.60;6.10;;;42.70;45.80;;;;;;5034658;28;20588;-56
2022/06/26 08:23:53;;;;;;;5.50;5.00;;;42.20;45.40;;;;;;5033068;28;20476;-46
2022/06/26 08:26:20;;;;;;;5.60;5.20;;;42.40;44.50;;;;;;5025606;28;20429;-51
2022/06/26 08:28:51;;;;;;;5.67;5.10;;;42.30;45.00;;;;;;5035797;28;20504;-57
2022/06/26 08:31:19;;;;;;;5.90;5.40;;;42.50;44.40;;;;;;5035093;28;20481;-51
2022/06/26 08:33:46;;;;;;;5.27;4.80;;;42.50;44.40;;;;;;5029406;28;20448;-58
2022/06/26 08:36:13;;;;;;;6.00;5.60;;;42.60;44.30;;;;;;5031090;28;20438;-48
2022/06/26 08:38:40;;;;;;;5.53;5.00;;;42.50;44.40;;;;;;5035288;28;20536;-49
2022/06/26 08:41:09;;;;;;;6.07;5.57;;;42.50;43.80;;;;;;5035040;28;20947;-49
2022/06/26 08:43:39;;;;;;;5.53;5.13;;;42.70;43.70;;;;;;5034112;28;20445;-47
2022/06/26 08:46:08;;;;;;;6.00;5.53;;;42.80;43.40;;;;;;5033735;28;20464;-54
2022/06/26 08:48:43;;;;;;;6.87;5.90;;;43.10;43.30;;;;;;5035319;28;20645;-52
2022/06/26 08:51:10;;;;;;;6.63;6.13;;;43.00;43.90;;;;;;5035362;28;20464;-49
2022/06/26 08:53:37;;;;;;;6.97;6.40;;;42.80;43.20;;;;;;5035192;28;20519;-52
2022/06/26 08:56:04;;;;;;;6.40;5.83;;;42.40;43.90;;;;;;5034589;28;20456;-48
2022/06/26 08:58:31;;;;;;;6.00;5.50;;;42.50;43.40;;;;;;5034259;28;20487;-52
2022/06/26 09:00:58;;;;;;;7.00;6.40;;;41.70;43.90;;;;;;5035229;28;20773;-44
2022/06/26 09:03:25;;;;;;;6.60;6.20;;;40.50;45.30;;;;;;5034650;28;20484;-47
2022/06/26 09:05:53;;;;;;;6.90;6.30;;;39.80;46.40;;;;;;5034611;28;20468;-54
2022/06/26 09:08:21;;;;;;;6.43;5.93;;;39.10;47.60;;;;;;5034584;28;20476;-53
2022/06/26 09:10:51;;;;;;;7.27;6.27;;;38.80;47.80;;;;;;5034535;28;20503;-54
2022/06/26 09:13:18;;;;;;;7.10;6.60;;;39.00;47.80;;;;;;5034101;28;20563;-50
2022/06/26 09:15:45;;;;;;;7.70;7.10;;;39.10;47.80;;;;;;5034180;28;20445;-42
2022/06/26 09:18:13;;;;;;;7.73;7.13;;;38.40;49.30;;;;;;5034543;28;20537;-53
2022/06/26 09:20:53;;;;;;;7.63;7.10;;;38.20;50.30;;;;;;5034485;28;20452;-58
2022/06/26 09:23:21;;;;;;;7.63;6.97;;;38.70;49.50;;;;;;5034091;28;20529;-59
2022/06/26 09:25:48;;;;;;;6.90;6.40;;;39.40;49.00;;;;;;5034140;28;20480;-57
2022/06/26 09:28:17;;;;;;;8.10;7.60;;;40.10;48.20;;;;;;5033376;28;20470;-62
2022/06/26 09:30:54;;;;;;;7.10;6.60;;;40.50;47.10;;;;;;5033442;28;20488;-55
2022/06/26 09:33:22;;;;;;;6.90;6.30;;;40.80;46.40;;;;;;5034319;28;20516;-55
2022/06/26 09:35:51;;;;;;;7.87;7.20;;;41.10;46.30;;;;;;5033259;28;21128;-52
2022/06/26 09:38:23;;;;;;;7.07;6.57;;;41.60;45.40;;;;;;5033762;28;20469;-51
2022/06/26 09:40:53;;;;;;;8.67;7.90;;;41.40;45.90;;;;;;5033664;28;20505;-54
2022/06/26 09:43:31;;;;;;;7.80;7.20;;;40.90;45.80;;;;;;5033730;28;20437;-52
2022/06/26 09:45:59;;;;;;;7.83;7.23;;;39.70;47.00;;;;;;5033147;28;20449;-46
2022/06/26 09:48:27;;;;;;;8.70;8.00;;;38.90;48.80;;;;;;5033582;28;20479;-50
2022/06/26 09:50:56;;;;;;;8.03;7.33;;;37.80;50.40;;;;;;5034151;28;20451;-52
2022/06/26 09:53:26;;;;;;;7.27;6.57;;;37.00;52.00;;;;;;5033267;28;20528;-51
2022/06/26 09:55:55;;;;;;;8.83;6.17;;;36.90;51.40;;;;;;5033475;28;20477;-50
2022/06/26 09:58:22;;;;;;;16.77;7.20;;;36.50;52.20;;;;;;5032684;28;20523;-57
2022/06/26 10:06:26;;;;;;;8.33;7.20;;;35.50;53.80;;;;;;5033459;28;20436;-51
2022/06/26 10:08:56;;;;;;;8.20;7.50;;;36.30;52.90;;;;;;5030941;28;20468;-48
2022/06/26 10:11:27;;;;;;;7.43;6.83;;;36.80;52.10;;;;;;5028752;28;20445;-51
2022/06/26 10:13:57;;;;;;;7.33;6.77;;;36.70;52.80;;;;;;5027256;28;20455;-50
2022/06/26 10:16:48;;;;;;;6.50;6.00;;;36.50;52.70;;;;;;5028667;28;20452;-57
2022/06/26 10:19:23;;;;;;;6.87;6.27;;;36.00;52.30;;;;;;5023960;28;20464;-52
2022/06/26 10:21:50;;;;;;;6.87;6.37;;;35.40;53.30;;;;;;5026220;28;20451;-50
2022/06/26 10:24:18;;;;;;;6.67;6.17;;;34.70;54.30;;;;;;5024373;28;20448;-52
2022/06/26 10:26:53;;;;;;;6.47;6.07;;;34.20;56.00;;;;;;5025980;28;20469;-54
2022/06/26 10:29:20;;;;;;;7.77;7.17;;;33.70;56.10;;;;;;5023035;28;20510;-53
2022/06/26 10:31:49;;;;;;;8.47;7.23;;;33.30;57.50;;;;;;5027257;28;20539;-61
2022/06/26 10:34:19;;;;;;;6.90;6.30;;;33.30;57.40;;;;;;5024859;28;20457;-63
2022/06/26 10:36:58;;;;;;;9.43;7.93;;;33.40;57.70;;;;;;5021557;28;20880;-57
2022/06/26 10:39:46;;;;;;;7.87;7.17;;;33.30;57.70;;;;;;5022309;28;20481;-58
2022/06/26 10:45:06;;;;;;;11.60;10.50;;;33.20;58.30;;;;;;5022417;28;20876;-60
2022/06/26 10:47:42;;;;;;;13.27;12.07;;;33.20;57.90;;;;;;5023763;28;20445;-59
2022/06/26 10:50:31;;;;;;;8.57;7.87;;;33.30;58.20;;;;;;5024934;28;20510;-57
2022/06/26 10:53:16;;;;;;;8.67;7.87;;;33.20;58.30;;;;;;5024495;28;20445;-53
2022/06/26 10:55:46;;;;;;;8.90;8.10;;;33.10;57.90;;;;;;5025956;28;20964;-60
2022/06/26 10:58:20;;;;;;;8.93;8.13;;;33.20;58.10;;;;;;5027893;28;20495;-55
2022/06/26 11:00:47;;;;;;;8.03;7.43;;;33.40;58.00;;;;;;5022387;28;20512;-59
2022/06/26 11:03:15;;;;;;;6.40;5.90;;;33.50;57.50;;;;;;5026874;28;20459;-56
2022/06/26 11:05:51;;;;;;;6.40;5.90;;;33.60;56.70;;;;;;5024242;28;20472;-61
2022/06/26 11:08:23;;;;;;;6.40;5.90;;;33.50;56.70;;;;;;5023268;28;20485;-60
2022/06/26 11:10:52;;;;;;;6.97;6.37;;;33.30;57.10;;;;;;5024655;28;20457;-57
2022/06/26 11:13:19;;;;;;;7.80;7.13;;;33.10;57.10;;;;;;5024689;28;20436;-60
2022/06/26 11:15:45;;;;;;;6.50;6.00;;;33.10;57.40;;;;;;5029087;28;20507;-55
2022/06/26 11:18:12;;;;;;;6.93;6.43;;;33.20;58.40;;;;;;5026046;28;20500;-61
2022/06/26 11:20:47;;;;;;;6.90;6.30;;;33.20;57.80;;;;;;5023578;28;20756;-58
2022/06/26 11:23:16;;;;;;;7.33;6.70;;;33.30;57.50;;;;;;5023538;28;20433;-55
2022/06/26 11:25:43;;;;;;;6.93;6.27;;;33.20;58.00;;;;;;5023661;28;20460;-56
2022/06/26 11:28:12;;;;;;;7.50;6.90;;;33.20;57.90;;;;;;5023478;28;20746;-60
2022/06/26 11:30:41;;;;;;;8.77;7.07;;;33.10;58.40;;;;;;5025277;28;20459;-55
2022/06/26 11:33:09;;;;;;;6.10;5.53;;;33.00;58.40;;;;;;5025987;28;20449;-60
2022/06/26 11:35:36;;;;;;;5.73;5.23;;;33.30;57.70;;;;;;5027166;28;20433;-60
2022/06/26 11:38:11;;;;;;;5.73;5.33;;;33.40;57.40;;;;;;5024463;28;20455;-61
2022/06/26 11:40:38;;;;;;;6.43;5.93;;;33.50;56.80;;;;;;5024207;28;20934;-61
2022/06/26 11:43:06;;;;;;;5.97;5.57;;;33.70;56.80;;;;;;5023722;28;20823;-60
2022/06/26 11:45:35;;;;;;;7.00;6.50;;;33.90;56.60;;;;;;5024259;28;20445;-60
2022/06/26 11:48:06;;;;;;;6.87;6.37;;;33.90;56.40;;;;;;5025023;28;20453;-60
2022/06/26 11:50:37;;;;;;;6.50;5.90;;;33.70;56.00;;;;;;5023994;28;20480;-60
2022/06/26 11:53:08;;;;;;;6.03;5.53;;;33.80;56.10;;;;;;5025637;28;20479;-54
2022/06/26 11:55:45;;;;;;;6.43;5.80;;;33.90;56.80;;;;;;5034798;28;20512;-52
2022/06/26 11:58:12;;;;;;;6.37;5.87;;;34.10;56.10;;;;;;5033045;28;20468;-59
2022/06/26 12:00:40;;;;;;;7.03;6.53;;;33.90;56.20;;;;;;5034838;28;20471;-53
2022/06/26 12:03:11;;;;;;;7.97;7.27;;;33.90;56.30;;;;;;5036705;28;20461;-56
2022/06/26 12:05:41;;;;;;;7.13;6.63;;;33.60;56.60;;;;;;5033011;28;20457;-60
2022/06/26 12:08:17;;;;;;;7.37;6.67;;;33.20;56.70;;;;;;5026416;28;20461;-60
2022/06/26 12:10:47;;;;;;;7.80;7.20;;;33.10;57.50;;;;;;5023868;28;20520;-60
2022/06/26 12:13:22;;;;;;;7.60;6.90;;;33.10;57.40;;;;;;5026283;28;20481;-59
2022/06/26 12:15:50;;;;;;;7.40;6.70;;;33.10;57.70;;;;;;5024992;28;20438;-60
2022/06/26 12:18:17;;;;;;;7.37;6.77;;;33.00;57.80;;;;;;5024885;28;20473;-62
2022/06/26 12:20:50;;;;;;;7.90;7.30;;;32.90;58.90;;;;;;5028205;28;20496;-62
2022/06/26 12:23:17;;;;;;;8.17;7.57;;;33.00;59.60;;;;;;5034370;28;20465;-59
2022/06/26 12:25:49;;;;;;;7.10;6.60;;;33.00;59.20;;;;;;5032503;28;20533;-59
2022/06/26 12:28:23;;;;;;;10.17;6.30;;;33.00;58.40;;;;;;5034581;28;20476;-51
2022/06/26 12:30:52;;;;;;;7.07;6.47;;;33.00;58.00;;;;;;5033156;28;20427;-46
2022/06/26 12:33:18;;;;;;;7.10;6.60;;;33.00;57.50;;;;;;5033497;28;20461;-61
2022/06/26 12:35:45;;;;;;;7.27;6.77;;;33.00;57.20;;;;;;5030667;28;20449;-57
2022/06/26 12:38:12;;;;;;;7.43;6.93;;;33.00;57.40;;;;;;5033014;28;20465;-60
2022/06/26 12:40:39;;;;;;;7.40;6.80;;;33.00;57.40;;;;;;5034614;28;20468;-60
2022/06/26 12:43:06;;;;;;;7.60;7.00;;;33.00;57.40;;;;;;5035461;28;20453;-61
2022/06/26 12:45:33;;;;;;;8.27;7.47;;;32.70;57.90;;;;;;5033405;28;20416;-55
2022/06/26 12:48:01;;;;;;;6.73;6.23;;;32.60;58.30;;;;;;5034574;28;20533;-50
2022/06/26 12:50:28;;;;;;;7.23;6.10;;;32.70;56.80;;;;;;5037078;28;20536;-59
2022/06/26 12:52:55;;;;;;;7.13;6.63;;;32.70;57.50;;;;;;5036768;28;20508;-56
2022/06/26 12:55:22;;;;;;;7.73;7.13;;;32.60;57.70;;;;;;5036415;28;20453;-56